createdAt,value
2018-03-03T00:00:05.946Z,-4.25
2018-03-03T00:01:06.374Z,-4.25
2018-03-03T00:02:06.316Z,-4.25
2018-03-03T00:03:06.734Z,-4.31
2018-03-03T00:04:06.327Z,-4.31
2018-03-03T00:05:06.081Z,-4.38
2018-03-03T00:06:06.374Z,-4.31
2018-03-03T00:07:05.906Z,-4.38
2018-03-03T00:08:06.731Z,-4.38
2018-03-03T00:09:06.316Z,-4.38
2018-03-03T00:10:05.934Z,-4.38
2018-03-03T00:11:06.008Z,-4.38
2018-03-03T00:12:06.382Z,-4.38
2018-03-03T00:13:06.394Z,-4.38
2018-03-03T00:14:05.871Z,-4.38
2018-03-03T00:15:10.573Z,-4.38
2018-03-03T00:16:05.985Z,-4.38
2018-03-03T00:17:05.606Z,-4.44
2018-03-03T00:18:06.349Z,-4.44
2018-03-03T00:19:06.274Z,-4.44
2018-03-03T00:20:06.703Z,-4.44
2018-03-03T00:21:11.404Z,-4.44
2018-03-03T00:22:05.886Z,-4.44
2018-03-03T00:23:05.954Z,-4.44
2018-03-03T00:24:05.626Z,-4.44
2018-03-03T00:25:06.715Z,-4.50
2018-03-03T00:26:05.897Z,-4.50
2018-03-03T00:27:06.005Z,-4.50
2018-03-03T00:28:06.449Z,-4.50
2018-03-03T00:29:07.481Z,-4.50
2018-03-03T00:30:06.019Z,-4.50
2018-03-03T00:31:06.377Z,-4.50
2018-03-03T00:32:06.337Z,-4.50
2018-03-03T00:33:06.762Z,-4.50
2018-03-03T00:34:06.275Z,-4.56
2018-03-03T00:35:06.344Z,-4.56
2018-03-03T00:36:06.364Z,-4.56
2018-03-03T00:37:05.600Z,-4.50
2018-03-03T00:38:06.783Z,-4.62
2018-03-03T00:39:06.418Z,-4.62
2018-03-03T00:40:06.711Z,-4.62
2018-03-03T00:41:05.981Z,-4.62
2018-03-03T00:42:06.649Z,-4.62
2018-03-03T00:43:06.346Z,-4.62
2018-03-03T00:44:05.938Z,-4.62
2018-03-03T00:45:06.319Z,-4.56
2018-03-03T00:46:06.434Z,-4.62
2018-03-03T00:47:06.026Z,-4.62
2018-03-03T00:48:06.829Z,-4.69
2018-03-03T00:49:05.961Z,-4.75
2018-03-03T00:50:05.651Z,-4.75
2018-03-03T00:51:06.458Z,-4.75
2018-03-03T00:52:06.698Z,-4.75
2018-03-03T00:53:06.328Z,-4.75
2018-03-03T00:54:10.799Z,-4.75
2018-03-03T00:55:06.399Z,-4.81
2018-03-03T00:56:06.334Z,-4.75
2018-03-03T00:57:06.417Z,-4.81
2018-03-03T00:58:06.330Z,-4.88
2018-03-03T00:59:05.905Z,-4.88
2018-03-03T01:00:05.939Z,-4.88
2018-03-03T01:01:06.972Z,-4.88
2018-03-03T01:02:06.763Z,-4.88
2018-03-03T01:03:11.141Z,-4.88
2018-03-03T01:04:11.289Z,-4.88
2018-03-03T01:05:10.446Z,-4.88
2018-03-03T01:06:05.968Z,-4.88
2018-03-03T01:07:06.278Z,-4.94
2018-03-03T01:08:06.698Z,-4.94
2018-03-03T01:09:06.149Z,-4.94
2018-03-03T01:10:06.425Z,-4.94
2018-03-03T01:11:06.791Z,-4.94
2018-03-03T01:12:06.409Z,-4.94
2018-03-03T01:13:05.778Z,-4.94
2018-03-03T01:14:10.805Z,-4.94
2018-03-03T01:15:06.389Z,-4.94
2018-03-03T01:16:06.405Z,-4.94
2018-03-03T01:17:05.998Z,-5.00
2018-03-03T01:18:05.947Z,-5.00
2018-03-03T01:19:07.133Z,-5.00
2018-03-03T01:20:05.625Z,-5.06
2018-03-03T01:21:06.035Z,-5.06
2018-03-03T01:22:05.632Z,-5.06
2018-03-03T01:23:11.049Z,-5.06
2018-03-03T01:24:06.456Z,-5.00
2018-03-03T01:25:05.927Z,-5.00
2018-03-03T01:26:06.776Z,-5.00
2018-03-03T01:27:06.340Z,-4.94
2018-03-03T01:28:05.716Z,-4.94
2018-03-03T01:29:06.410Z,-4.94
2018-03-03T01:30:06.418Z,-5.00
2018-03-03T01:31:05.985Z,-5.00
2018-03-03T01:32:06.333Z,-5.00
2018-03-03T01:33:06.035Z,-5.00
2018-03-03T01:34:06.403Z,-5.00
2018-03-03T01:35:06.051Z,-5.00
2018-03-03T01:36:06.758Z,-5.00
2018-03-03T01:37:06.034Z,-5.00
2018-03-03T01:38:05.678Z,-5.00
2018-03-03T01:39:06.376Z,-5.00
2018-03-03T01:40:05.718Z,-5.00
2018-03-03T01:41:06.770Z,-5.06
2018-03-03T01:42:06.497Z,-5.00
2018-03-03T01:43:06.425Z,-5.00
2018-03-03T01:44:06.428Z,-5.00
2018-03-03T01:45:06.514Z,-5.06
2018-03-03T01:46:06.409Z,-5.06
2018-03-03T01:47:05.758Z,-5.06
2018-03-03T01:48:06.047Z,-5.06
2018-03-03T01:49:06.405Z,-5.00
2018-03-03T01:50:05.968Z,-5.00
2018-03-03T01:51:11.301Z,-5.00
2018-03-03T01:52:05.977Z,-5.06
2018-03-03T01:53:05.706Z,-5.06
2018-03-03T01:54:06.294Z,-5.06
2018-03-03T01:55:06.359Z,-5.06
2018-03-03T01:56:06.849Z,-5.06
2018-03-03T01:57:05.713Z,-5.06
2018-03-03T01:58:06.800Z,-5.06
2018-03-03T01:59:06.521Z,-5.06
2018-03-03T02:00:06.464Z,-5.00
2018-03-03T02:01:05.618Z,-5.00
2018-03-03T02:02:06.067Z,-5.00
2018-03-03T02:03:06.475Z,-5.06
2018-03-03T02:04:11.068Z,-5.06
2018-03-03T02:05:06.518Z,-5.06
2018-03-03T02:06:05.954Z,-5.12
2018-03-03T02:07:06.095Z,-5.12
2018-03-03T02:08:11.347Z,-5.12
2018-03-03T02:09:06.100Z,-5.12
2018-03-03T02:10:06.414Z,-5.12
2018-03-03T02:11:05.978Z,-5.06
2018-03-03T02:12:05.996Z,-5.06
2018-03-03T02:13:06.436Z,-5.12
2018-03-03T02:14:06.038Z,-5.06
2018-03-03T02:15:06.058Z,-5.12
2018-03-03T02:16:06.348Z,-5.06
2018-03-03T02:17:06.407Z,-5.06
2018-03-03T02:18:06.018Z,-5.06
2018-03-03T02:19:06.498Z,-5.12
2018-03-03T02:20:10.641Z,-5.06
2018-03-03T02:21:06.000Z,-5.06
2018-03-03T02:22:06.470Z,-5.06
2018-03-03T02:23:06.161Z,-5.06
2018-03-03T02:24:05.681Z,-5.06
2018-03-03T02:25:06.165Z,-5.06
2018-03-03T02:26:06.490Z,-5.06
2018-03-03T02:27:06.094Z,-5.06
2018-03-03T02:28:06.073Z,-5.06
2018-03-03T02:29:06.842Z,-5.06
2018-03-03T02:30:06.106Z,-5.06
2018-03-03T02:31:06.435Z,-5.06
2018-03-03T02:32:06.633Z,-5.06
2018-03-03T02:33:06.854Z,-5.06
2018-03-03T02:34:05.639Z,-5.06
2018-03-03T02:35:06.425Z,-5.06
2018-03-03T02:36:06.514Z,-5.06
2018-03-03T02:37:06.362Z,-5.06
2018-03-03T02:38:11.376Z,-5.06
2018-03-03T02:39:06.845Z,-5.06
2018-03-03T02:40:06.570Z,-5.06
2018-03-03T02:41:06.019Z,-5.06
2018-03-03T02:42:06.138Z,-5.00
2018-03-03T02:43:06.203Z,-5.00
2018-03-03T02:44:11.353Z,-5.00
2018-03-03T02:45:06.081Z,-5.00
2018-03-03T02:46:06.488Z,-5.00
2018-03-03T02:47:05.722Z,-5.00
2018-03-03T02:48:06.417Z,-5.00
2018-03-03T02:49:05.751Z,-5.00
2018-03-03T02:50:06.873Z,-5.00
2018-03-03T02:51:06.521Z,-5.00
2018-03-03T02:52:06.107Z,-5.00
2018-03-03T02:53:06.409Z,-5.00
2018-03-03T02:54:06.498Z,-5.00
2018-03-03T02:55:06.098Z,-5.00
2018-03-03T02:56:05.740Z,-5.00
2018-03-03T02:57:06.389Z,-5.00
2018-03-03T02:58:06.545Z,-4.94
2018-03-03T02:59:05.748Z,-5.00
2018-03-03T03:00:06.496Z,-4.94
2018-03-03T03:01:10.960Z,-4.94
2018-03-03T03:02:05.674Z,-4.94
2018-03-03T03:03:05.816Z,-4.94
2018-03-03T03:04:06.246Z,-4.94
2018-03-03T03:05:06.530Z,-4.94
2018-03-03T03:06:06.474Z,-4.94
2018-03-03T03:07:06.033Z,-4.94
2018-03-03T03:08:06.139Z,-4.94
2018-03-03T03:09:05.704Z,-4.94
2018-03-03T03:10:06.038Z,-4.94
2018-03-03T03:11:06.019Z,-4.94
2018-03-03T03:12:06.503Z,-4.94
2018-03-03T03:13:06.801Z,-4.94
2018-03-03T03:14:06.534Z,-4.94
2018-03-03T03:15:06.164Z,-4.88
2018-03-03T03:16:05.803Z,-4.94
2018-03-03T03:17:06.904Z,-4.94
2018-03-03T03:18:10.465Z,-4.94
2018-03-03T03:19:10.644Z,-4.94
2018-03-03T03:20:06.083Z,-4.88
2018-03-03T03:21:06.438Z,-4.88
2018-03-03T03:22:06.216Z,-4.88
2018-03-03T03:23:06.498Z,-4.88
2018-03-03T03:24:05.750Z,-4.88
2018-03-03T03:25:10.396Z,-4.88
2018-03-03T03:26:06.062Z,-4.88
2018-03-03T03:27:06.511Z,-4.88
2018-03-03T03:28:06.547Z,-4.88
2018-03-03T03:29:05.764Z,-4.88
2018-03-03T03:30:05.774Z,-4.88
2018-03-03T03:31:06.108Z,-4.88
2018-03-03T03:32:06.431Z,-4.88
2018-03-03T03:33:06.070Z,-4.88
2018-03-03T03:34:10.878Z,-4.88
2018-03-03T03:35:11.060Z,-4.88
2018-03-03T03:36:05.820Z,-4.88
2018-03-03T03:37:06.053Z,-4.88
2018-03-03T03:38:06.608Z,-4.94
2018-03-03T03:39:10.651Z,-4.94
2018-03-03T03:40:06.432Z,-4.94
2018-03-03T03:41:06.104Z,-4.94
2018-03-03T03:42:05.722Z,-4.94
2018-03-03T03:43:11.357Z,-4.88
2018-03-03T03:44:06.192Z,-4.94
2018-03-03T03:45:06.651Z,-4.94
2018-03-03T03:46:06.125Z,-4.94
2018-03-03T03:47:06.219Z,-4.94
2018-03-03T03:48:06.471Z,-4.94
2018-03-03T03:49:05.799Z,-4.94
2018-03-03T03:50:11.278Z,-4.94
2018-03-03T03:51:06.099Z,-4.94
2018-03-03T03:52:06.714Z,-4.94
2018-03-03T03:53:06.226Z,-4.94
2018-03-03T03:54:06.183Z,-4.94
2018-03-03T03:55:06.431Z,-5.00
2018-03-03T03:56:06.287Z,-5.00
2018-03-03T03:57:06.250Z,-5.00
2018-03-03T03:58:05.785Z,-5.00
2018-03-03T03:59:05.802Z,-5.00
2018-03-03T04:00:06.883Z,-5.00
2018-03-03T04:01:06.161Z,-5.00
2018-03-03T04:02:11.136Z,-5.06
2018-03-03T04:03:06.482Z,-5.06
2018-03-03T04:04:05.753Z,-5.12
2018-03-03T04:05:06.136Z,-5.06
2018-03-03T04:06:06.462Z,-5.06
2018-03-03T04:07:06.248Z,-5.06
2018-03-03T04:08:11.854Z,-5.06
2018-03-03T04:09:06.218Z,-5.12
2018-03-03T04:10:05.840Z,-5.06
2018-03-03T04:11:06.457Z,-5.06
2018-03-03T04:12:05.770Z,-5.06
2018-03-03T04:13:06.108Z,-5.06
2018-03-03T04:14:05.807Z,-5.12
2018-03-03T04:15:06.149Z,-5.12
2018-03-03T04:16:05.748Z,-5.12
2018-03-03T04:17:06.556Z,-5.12
2018-03-03T04:18:06.150Z,-5.12
2018-03-03T04:19:06.555Z,-5.19
2018-03-03T04:20:10.835Z,-5.19
2018-03-03T04:21:11.006Z,-5.19
2018-03-03T04:22:06.538Z,-5.19
2018-03-03T04:23:06.645Z,-5.19
2018-03-03T04:24:06.232Z,-5.19
2018-03-03T04:25:06.330Z,-5.19
2018-03-03T04:26:05.724Z,-5.19
2018-03-03T04:27:06.115Z,-5.19
2018-03-03T04:28:06.248Z,-5.19
2018-03-03T04:29:05.775Z,-5.19
2018-03-03T04:30:05.736Z,-5.19
2018-03-03T04:31:06.539Z,-5.12
2018-03-03T04:32:06.157Z,-5.19
2018-03-03T04:33:06.597Z,-5.19
2018-03-03T04:34:06.928Z,-5.19
2018-03-03T04:35:06.278Z,-5.19
2018-03-03T04:36:06.594Z,-5.19
2018-03-03T04:37:05.863Z,-5.19
2018-03-03T04:38:06.182Z,-5.19
2018-03-03T04:39:06.504Z,-5.19
2018-03-03T04:40:05.846Z,-5.19
2018-03-03T04:41:06.570Z,-5.19
2018-03-03T04:42:06.628Z,-5.19
2018-03-03T04:43:06.177Z,-5.19
2018-03-03T04:44:11.380Z,-5.19
2018-03-03T04:45:05.793Z,-5.19
2018-03-03T04:46:06.858Z,-5.19
2018-03-03T04:47:05.831Z,-5.19
2018-03-03T04:48:15.900Z,-5.19
2018-03-03T04:49:05.792Z,-5.19
2018-03-03T04:50:06.168Z,-5.19
2018-03-03T04:51:06.250Z,-5.19
2018-03-03T04:52:06.615Z,-5.19
2018-03-03T04:53:06.661Z,-5.19
2018-03-03T04:54:05.869Z,-5.19
2018-03-03T04:55:05.888Z,-5.19
2018-03-03T04:56:06.518Z,-5.19
2018-03-03T04:57:05.859Z,-5.19
2018-03-03T04:58:06.301Z,-5.19
2018-03-03T04:59:06.119Z,-5.12
2018-03-03T05:00:06.163Z,-5.12
2018-03-03T05:01:05.908Z,-5.12
2018-03-03T05:02:06.229Z,-5.12
2018-03-03T05:03:06.312Z,-5.12
2018-03-03T05:04:06.944Z,-5.12
2018-03-03T05:05:05.874Z,-5.12
2018-03-03T05:06:05.846Z,-5.19
2018-03-03T05:07:06.173Z,-5.19
2018-03-03T05:08:05.791Z,-5.19
2018-03-03T05:09:05.929Z,-5.19
2018-03-03T05:10:05.763Z,-5.19
2018-03-03T05:11:05.868Z,-5.19
2018-03-03T05:12:06.656Z,-5.19
2018-03-03T05:13:06.278Z,-5.19
2018-03-03T05:14:06.887Z,-5.19
2018-03-03T05:15:05.820Z,-5.19
2018-03-03T05:16:11.105Z,-5.19
2018-03-03T05:17:05.816Z,-5.19
2018-03-03T05:18:06.236Z,-5.19
2018-03-03T05:19:06.662Z,-5.25
2018-03-03T05:20:05.910Z,-5.25
2018-03-03T05:21:06.578Z,-5.31
2018-03-03T05:22:05.849Z,-5.31
2018-03-03T05:23:06.320Z,-5.31
2018-03-03T05:24:06.253Z,-5.31
2018-03-03T05:25:06.937Z,-5.31
2018-03-03T05:26:05.855Z,-5.31
2018-03-03T05:27:06.638Z,-5.31
2018-03-03T05:28:06.179Z,-5.31
2018-03-03T05:29:06.261Z,-5.38
2018-03-03T05:30:07.153Z,-5.38
2018-03-03T05:31:11.458Z,-5.31
2018-03-03T05:32:06.222Z,-5.31
2018-03-03T05:33:06.731Z,-5.31
2018-03-03T05:34:06.245Z,-5.38
2018-03-03T05:35:05.792Z,-5.38
2018-03-03T05:36:11.135Z,-5.38
2018-03-03T05:37:06.684Z,-5.44
2018-03-03T05:38:05.776Z,-5.44
2018-03-03T05:39:06.432Z,-5.44
2018-03-03T05:40:06.273Z,-5.44
2018-03-03T05:41:05.928Z,-5.44
2018-03-03T05:42:06.590Z,-5.44
2018-03-03T05:43:07.776Z,-5.44
2018-03-03T05:44:06.595Z,-5.44
2018-03-03T05:45:11.268Z,-5.44
2018-03-03T05:46:05.848Z,-5.44
2018-03-03T05:47:05.953Z,-5.44
2018-03-03T05:48:06.665Z,-5.44
2018-03-03T05:49:05.927Z,-5.44
2018-03-03T05:50:05.526Z,-5.44
2018-03-03T05:51:05.777Z,-5.44
2018-03-03T05:52:11.486Z,-5.44
2018-03-03T05:53:05.914Z,-5.44
2018-03-03T05:54:05.898Z,-5.44
2018-03-03T05:55:06.284Z,-5.44
2018-03-03T05:56:10.979Z,-5.38
2018-03-03T05:57:06.306Z,-5.38
2018-03-03T05:58:06.575Z,-5.44
2018-03-03T05:59:06.580Z,-5.50
2018-03-03T06:00:06.182Z,-5.50
2018-03-03T06:01:06.734Z,-5.50
2018-03-03T06:02:05.853Z,-5.44
2018-03-03T06:03:06.310Z,-5.44
2018-03-03T06:04:06.358Z,-5.44
2018-03-03T06:05:11.375Z,-5.44
2018-03-03T06:06:05.870Z,-5.38
2018-03-03T06:07:06.271Z,-5.44
2018-03-03T06:08:06.284Z,-5.44
2018-03-03T06:09:06.315Z,-5.44
2018-03-03T06:10:06.328Z,-5.44
2018-03-03T06:11:06.264Z,-5.44
2018-03-03T06:12:05.830Z,-5.38
2018-03-03T06:13:06.297Z,-5.44
2018-03-03T06:14:05.864Z,-5.50
2018-03-03T06:15:06.339Z,-5.50
2018-03-03T06:16:06.282Z,-5.50
2018-03-03T06:17:05.893Z,-5.44
2018-03-03T06:18:06.345Z,-5.50
2018-03-03T06:19:05.903Z,-5.50
2018-03-03T06:20:06.252Z,-5.50
2018-03-03T06:21:06.042Z,-5.50
2018-03-03T06:22:05.997Z,-5.50
2018-03-03T06:23:06.419Z,-5.50
2018-03-03T06:24:05.825Z,-5.56
2018-03-03T06:25:06.662Z,-5.56
2018-03-03T06:26:06.255Z,-5.56
2018-03-03T06:27:05.947Z,-5.56
2018-03-03T06:28:11.258Z,-5.56
2018-03-03T06:29:06.571Z,-5.69
2018-03-03T06:30:06.258Z,-5.62
2018-03-03T06:31:06.236Z,-5.69
2018-03-03T06:32:05.629Z,-5.62
2018-03-03T06:33:10.733Z,-5.62
2018-03-03T06:34:06.292Z,-5.69
2018-03-03T06:35:05.839Z,-5.62
2018-03-03T06:36:06.609Z,-5.62
2018-03-03T06:37:05.879Z,-5.62
2018-03-03T06:38:06.630Z,-5.62
2018-03-03T06:39:05.552Z,-5.56
2018-03-03T06:40:05.891Z,-5.62
2018-03-03T06:41:07.019Z,-5.62
2018-03-03T06:42:05.911Z,-5.62
2018-03-03T06:43:06.721Z,-5.56
2018-03-03T06:44:06.719Z,-5.56
2018-03-03T06:45:05.861Z,-5.56
2018-03-03T06:46:06.761Z,-5.56
2018-03-03T06:47:05.945Z,-5.56
2018-03-03T06:48:05.552Z,-5.50
2018-03-03T06:49:05.577Z,-5.50
2018-03-03T06:50:06.232Z,-5.50
2018-03-03T06:51:06.272Z,-5.50
2018-03-03T06:52:06.645Z,-5.44
2018-03-03T06:53:06.293Z,-5.44
2018-03-03T06:54:06.724Z,-5.44
2018-03-03T06:55:06.007Z,-5.50
2018-03-03T06:56:05.547Z,-5.50
2018-03-03T06:57:05.896Z,-5.50
2018-03-03T06:58:06.621Z,-5.50
2018-03-03T06:59:05.567Z,-5.44
2018-03-03T07:00:06.357Z,-5.44
2018-03-03T07:01:07.005Z,-5.44
2018-03-03T07:02:05.896Z,-5.38
2018-03-03T07:03:06.766Z,-5.38
2018-03-03T07:04:05.878Z,-5.38
2018-03-03T07:05:06.390Z,-5.38
2018-03-03T07:06:06.803Z,-5.44
2018-03-03T07:07:05.981Z,-5.44
2018-03-03T07:08:07.768Z,-5.38
2018-03-03T07:09:06.236Z,-5.38
2018-03-03T07:10:06.358Z,-5.38
2018-03-03T07:11:05.832Z,-5.44
2018-03-03T07:12:06.277Z,-5.44
2018-03-03T07:13:06.841Z,-5.44
2018-03-03T07:14:06.339Z,-5.38
2018-03-03T07:15:06.283Z,-5.38
2018-03-03T07:16:06.624Z,-5.44
2018-03-03T07:17:06.261Z,-5.38
2018-03-03T07:18:10.489Z,-5.38
2018-03-03T07:19:05.869Z,-5.38
2018-03-03T07:20:06.296Z,-5.38
2018-03-03T07:21:06.650Z,-5.38
2018-03-03T07:22:05.972Z,-5.38
2018-03-03T07:23:06.663Z,-5.38
2018-03-03T07:24:05.876Z,-5.44
2018-03-03T07:25:06.022Z,-5.38
2018-03-03T07:26:05.600Z,-5.38
2018-03-03T07:27:05.947Z,-5.38
2018-03-03T07:28:07.006Z,-5.31
2018-03-03T07:29:05.946Z,-5.38
2018-03-03T07:30:05.909Z,-5.38
2018-03-03T07:31:06.007Z,-5.31
2018-03-03T07:32:06.049Z,-5.31
2018-03-03T07:33:06.038Z,-5.31
2018-03-03T07:34:05.702Z,-5.31
2018-03-03T07:35:06.995Z,-5.31
2018-03-03T07:36:11.184Z,-5.31
2018-03-03T07:37:06.687Z,-5.25
2018-03-03T07:38:06.708Z,-5.31
2018-03-03T07:39:06.688Z,-5.31
2018-03-03T07:40:06.296Z,-5.31
2018-03-03T07:41:07.085Z,-5.31
2018-03-03T07:42:05.983Z,-5.38
2018-03-03T07:43:06.297Z,-5.31
2018-03-03T07:44:05.945Z,-5.38
2018-03-03T07:45:06.336Z,-5.38
2018-03-03T07:46:05.945Z,-5.31
2018-03-03T07:47:06.028Z,-5.31
2018-03-03T07:48:06.752Z,-5.25
2018-03-03T07:49:05.632Z,-5.19
2018-03-03T07:50:05.927Z,-5.25
2018-03-03T07:51:05.962Z,-5.25
2018-03-03T07:52:06.039Z,-5.25
2018-03-03T07:53:06.267Z,-5.25
2018-03-03T07:54:05.657Z,-5.25
2018-03-03T07:55:05.648Z,-5.25
2018-03-03T07:56:06.361Z,-5.19
2018-03-03T07:57:05.992Z,-5.25
2018-03-03T07:58:05.967Z,-5.25
2018-03-03T07:59:05.664Z,-5.25
2018-03-03T08:00:06.083Z,-5.25
2018-03-03T08:01:05.721Z,-5.25
2018-03-03T08:02:06.342Z,-5.31
2018-03-03T08:03:06.028Z,-5.25
2018-03-03T08:04:06.493Z,-5.25
2018-03-03T08:05:05.916Z,-5.25
2018-03-03T08:06:06.287Z,-5.25
2018-03-03T08:07:10.639Z,-5.25
2018-03-03T08:08:06.067Z,-5.25
2018-03-03T08:09:05.944Z,-5.25
2018-03-03T08:10:11.276Z,-5.25
2018-03-03T08:11:05.970Z,-5.25
2018-03-03T08:12:05.914Z,-5.25
2018-03-03T08:13:06.307Z,-5.19
2018-03-03T08:14:06.782Z,-5.12
2018-03-03T08:15:05.651Z,-5.12
2018-03-03T08:16:06.275Z,-5.06
2018-03-03T08:17:06.445Z,-5.12
2018-03-03T08:18:06.816Z,-5.06
2018-03-03T08:19:06.056Z,-5.06
2018-03-03T08:20:06.418Z,-5.06
2018-03-03T08:21:05.748Z,-5.06
2018-03-03T08:22:06.298Z,-5.06
2018-03-03T08:23:06.765Z,-5.06
2018-03-03T08:24:05.954Z,-5.00
2018-03-03T08:25:06.458Z,-5.06
2018-03-03T08:26:10.645Z,-5.06
2018-03-03T08:27:06.067Z,-5.06
2018-03-03T08:28:06.452Z,-5.12
2018-03-03T08:29:06.799Z,-5.12
2018-03-03T08:30:06.689Z,-5.06
2018-03-03T08:31:05.971Z,-5.06
2018-03-03T08:32:05.743Z,-5.06
2018-03-03T08:33:06.334Z,-5.06
2018-03-03T08:34:05.938Z,-5.06
2018-03-03T08:35:05.984Z,-5.00
2018-03-03T08:36:06.418Z,-5.00
2018-03-03T08:37:06.751Z,-4.94
2018-03-03T08:38:05.955Z,-4.94
2018-03-03T08:39:06.479Z,-4.94
2018-03-03T08:40:05.966Z,-4.88
2018-03-03T08:41:05.645Z,-4.88
2018-03-03T08:42:05.675Z,-4.88
2018-03-03T08:43:06.469Z,-4.88
2018-03-03T08:44:06.754Z,-4.88
2018-03-03T08:45:05.949Z,-4.81
2018-03-03T08:46:06.362Z,-4.81
2018-03-03T08:47:06.365Z,-4.88
2018-03-03T08:48:06.486Z,-4.88
2018-03-03T08:49:06.474Z,-4.88
2018-03-03T08:50:05.929Z,-4.88
2018-03-03T08:51:06.405Z,-4.88
2018-03-03T08:52:06.340Z,-4.81
2018-03-03T08:53:05.719Z,-4.81
2018-03-03T08:54:06.101Z,-4.81
2018-03-03T08:55:05.717Z,-4.81
2018-03-03T08:56:05.772Z,-4.75
2018-03-03T08:57:06.075Z,-4.81
2018-03-03T08:58:06.073Z,-4.81
2018-03-03T08:59:06.455Z,-4.81
2018-03-03T09:00:05.720Z,-4.75
2018-03-03T09:01:05.983Z,-4.75
2018-03-03T09:02:11.107Z,-4.69
2018-03-03T09:03:06.479Z,-4.69
2018-03-03T09:04:06.085Z,-4.69
2018-03-03T09:05:05.800Z,-4.69
2018-03-03T09:06:06.388Z,-4.75
2018-03-03T09:07:05.799Z,-4.75
2018-03-03T09:08:05.586Z,-4.69
2018-03-03T09:09:06.493Z,-4.69
2018-03-03T09:10:06.355Z,-4.69
2018-03-03T09:11:10.934Z,-4.69
2018-03-03T09:12:06.551Z,-4.69
2018-03-03T09:13:05.770Z,-4.62
2018-03-03T09:14:05.989Z,-4.62
2018-03-03T09:15:06.774Z,-4.56
2018-03-03T09:16:06.484Z,-4.56
2018-03-03T09:17:06.008Z,-4.56
2018-03-03T09:18:06.359Z,-4.56
2018-03-03T09:19:05.974Z,-4.56
2018-03-03T09:20:06.519Z,-4.56
2018-03-03T09:21:06.123Z,-4.56
2018-03-03T09:22:06.432Z,-4.56
2018-03-03T09:23:10.479Z,-4.56
2018-03-03T09:24:10.616Z,-4.50
2018-03-03T09:25:06.065Z,-4.50
2018-03-03T09:26:06.176Z,-4.50
2018-03-03T09:27:05.693Z,-4.50
2018-03-03T09:28:06.015Z,-4.50
2018-03-03T09:29:06.863Z,-4.50
2018-03-03T09:30:06.037Z,-4.44
2018-03-03T09:31:06.064Z,-4.44
2018-03-03T09:32:06.503Z,-4.44
2018-03-03T09:33:06.098Z,-4.38
2018-03-03T09:34:06.429Z,-4.38
2018-03-03T09:35:05.591Z,-4.38
2018-03-03T09:36:06.510Z,-4.38
2018-03-03T09:37:05.998Z,-4.31
2018-03-03T09:38:06.416Z,-4.31
2018-03-03T09:39:06.382Z,-4.31
2018-03-03T09:40:06.040Z,-4.38
2018-03-03T09:41:06.440Z,-4.38
2018-03-03T09:42:05.613Z,-4.38
2018-03-03T09:43:05.755Z,-4.38
2018-03-03T09:44:06.535Z,-4.31
2018-03-03T09:45:05.699Z,-4.31
2018-03-03T09:46:06.149Z,-4.31
2018-03-03T09:47:05.673Z,-4.38
2018-03-03T09:48:06.052Z,-4.31
2018-03-03T09:49:06.500Z,-4.31
2018-03-03T09:50:05.982Z,-4.31
2018-03-03T09:51:06.527Z,-4.31
2018-03-03T09:52:05.707Z,-4.31
2018-03-03T09:53:10.973Z,-4.31
2018-03-03T09:54:06.378Z,-4.38
2018-03-03T09:55:05.786Z,-4.38
2018-03-03T09:56:06.793Z,-4.31
2018-03-03T09:57:06.122Z,-4.31
2018-03-03T09:58:07.275Z,-4.25
2018-03-03T09:59:06.807Z,-4.25
2018-03-03T10:00:06.431Z,-4.25
2018-03-03T10:01:06.523Z,-4.25
2018-03-03T10:02:06.293Z,-4.19
2018-03-03T10:03:05.767Z,-4.19
2018-03-03T10:04:05.856Z,-4.19
2018-03-03T10:05:05.691Z,-4.19
2018-03-03T10:06:06.106Z,-4.12
2018-03-03T10:07:06.050Z,-4.12
2018-03-03T10:08:11.038Z,-4.06
2018-03-03T10:09:06.435Z,-4.06
2018-03-03T10:10:06.805Z,-4.06
2018-03-03T10:11:06.493Z,-4.00
2018-03-03T10:12:06.550Z,-4.00
2018-03-03T10:13:07.375Z,-4.00
2018-03-03T10:14:07.254Z,-4.00
2018-03-03T10:15:06.649Z,-4.06
2018-03-03T10:16:06.116Z,-4.00
2018-03-03T10:17:08.082Z,-4.00
2018-03-03T10:18:06.142Z,-4.00
2018-03-03T10:19:06.092Z,-4.00
2018-03-03T10:20:06.458Z,-4.00
2018-03-03T10:21:05.698Z,-4.00
2018-03-03T10:22:06.103Z,-3.94
2018-03-03T10:23:06.518Z,-3.94
2018-03-03T10:24:07.152Z,-3.88
2018-03-03T10:25:06.911Z,-3.88
2018-03-03T10:26:05.668Z,-3.81
2018-03-03T10:27:06.068Z,-3.81
2018-03-03T10:28:06.485Z,-3.75
2018-03-03T10:29:05.658Z,-3.81
2018-03-03T10:30:06.472Z,-3.75
2018-03-03T10:31:06.477Z,-3.75
2018-03-03T10:32:06.051Z,-3.75
2018-03-03T10:33:06.277Z,-3.69
2018-03-03T10:34:06.079Z,-3.62
2018-03-03T10:35:06.407Z,-3.62
2018-03-03T10:36:05.698Z,-3.69
2018-03-03T10:37:06.529Z,-3.62
2018-03-03T10:38:06.035Z,-3.62
2018-03-03T10:39:05.847Z,-3.62
2018-03-03T10:40:06.564Z,-3.62
2018-03-03T10:41:05.709Z,-3.62
2018-03-03T10:42:06.172Z,-3.56
2018-03-03T10:43:06.406Z,-3.56
2018-03-03T10:44:06.634Z,-3.56
2018-03-03T10:45:06.504Z,-3.56
2018-03-03T10:46:06.068Z,-3.56
2018-03-03T10:47:06.117Z,-3.50
2018-03-03T10:48:06.543Z,-3.44
2018-03-03T10:49:05.820Z,-3.44
2018-03-03T10:50:05.791Z,-3.44
2018-03-03T10:51:06.630Z,-3.44
2018-03-03T10:52:06.178Z,-3.38
2018-03-03T10:53:05.809Z,-3.44
2018-03-03T10:54:06.488Z,-3.38
2018-03-03T10:55:05.729Z,-3.38
2018-03-03T10:56:06.845Z,-3.38
2018-03-03T10:57:05.692Z,-3.38
2018-03-03T10:58:06.430Z,-3.31
2018-03-03T10:59:05.850Z,-3.25
2018-03-03T11:00:06.501Z,-3.19
2018-03-03T11:01:07.204Z,-3.19
2018-03-03T11:02:06.520Z,-3.19
2018-03-03T11:03:05.676Z,-3.25
2018-03-03T11:04:05.806Z,-3.19
2018-03-03T11:05:06.046Z,-3.19
2018-03-03T11:06:05.715Z,-3.12
2018-03-03T11:07:05.529Z,-3.19
2018-03-03T11:08:06.593Z,-3.19
2018-03-03T11:09:06.438Z,-3.12
2018-03-03T11:10:06.089Z,-3.12
2018-03-03T11:11:06.462Z,-3.12
2018-03-03T11:12:06.108Z,-3.06
2018-03-03T11:13:05.691Z,-3.06
2018-03-03T11:14:06.073Z,-3.00
2018-03-03T11:15:06.507Z,-2.94
2018-03-03T11:16:06.507Z,-2.88
2018-03-03T11:17:06.284Z,-2.81
2018-03-03T11:18:11.294Z,-2.88
2018-03-03T11:19:06.100Z,-2.81
2018-03-03T11:20:06.438Z,-2.81
2018-03-03T11:21:10.890Z,-2.75
2018-03-03T11:22:06.070Z,-2.81
2018-03-03T11:23:05.783Z,-2.75
2018-03-03T11:24:06.578Z,-2.69
2018-03-03T11:25:06.160Z,-2.62
2018-03-03T11:26:05.701Z,-2.62
2018-03-03T11:27:10.939Z,-2.56
2018-03-03T11:28:06.439Z,-2.56
2018-03-03T11:29:05.708Z,-2.56
2018-03-03T11:30:06.231Z,-2.56
2018-03-03T11:31:06.490Z,-2.62
2018-03-03T11:32:06.192Z,-2.62
2018-03-03T11:33:06.117Z,-2.62
2018-03-03T11:34:05.729Z,-2.56
2018-03-03T11:35:06.508Z,-2.62
2018-03-03T11:36:06.215Z,-2.62
2018-03-03T11:37:06.096Z,-2.69
2018-03-03T11:38:06.221Z,-2.62
2018-03-03T11:39:05.703Z,-2.69
2018-03-03T11:40:10.975Z,-2.62
2018-03-03T11:41:05.712Z,-2.62
2018-03-03T11:42:06.171Z,-2.62
2018-03-03T11:43:05.699Z,-2.69
2018-03-03T11:44:06.081Z,-2.69
2018-03-03T11:45:06.605Z,-2.69
2018-03-03T11:46:06.478Z,-2.75
2018-03-03T11:47:05.720Z,-2.75
2018-03-03T11:48:06.242Z,-2.75
2018-03-03T11:49:05.716Z,-2.75
2018-03-03T11:50:06.219Z,-2.75
2018-03-03T11:51:05.864Z,-2.75
2018-03-03T11:52:05.823Z,-2.69
2018-03-03T11:53:05.937Z,-2.62
2018-03-03T11:54:07.255Z,-2.69
2018-03-03T11:55:05.959Z,-2.62
2018-03-03T11:56:06.279Z,-2.69
2018-03-03T11:57:06.257Z,-2.62
2018-03-03T11:58:06.110Z,-2.56
2018-03-03T11:59:06.576Z,-2.56
2018-03-03T12:00:06.168Z,-2.69
2018-03-03T12:01:06.845Z,-2.69
2018-03-03T12:02:10.976Z,-2.69
2018-03-03T12:03:05.476Z,-2.69
2018-03-03T12:04:06.909Z,-2.69
2018-03-03T12:05:10.586Z,-2.75
2018-03-03T12:06:05.930Z,-2.69
2018-03-03T12:07:05.501Z,-2.69
2018-03-03T12:08:06.149Z,-2.69
2018-03-03T12:09:05.781Z,-2.62
2018-03-03T12:10:05.792Z,-2.69
2018-03-03T12:11:07.310Z,-2.62
2018-03-03T12:12:05.758Z,-2.62
2018-03-03T12:13:06.503Z,-2.62
2018-03-03T12:14:06.137Z,-2.62
2018-03-03T12:15:06.171Z,-2.56
2018-03-03T12:16:05.817Z,-2.56
2018-03-03T12:17:06.528Z,-2.56
2018-03-03T12:18:06.540Z,-2.56
2018-03-03T12:19:06.161Z,-2.56
2018-03-03T12:20:05.850Z,-2.50
2018-03-03T12:21:06.236Z,-2.56
2018-03-03T12:22:06.280Z,-2.62
2018-03-03T12:23:06.234Z,-2.56
2018-03-03T12:24:05.817Z,-2.50
2018-03-03T12:25:06.279Z,-2.50
2018-03-03T12:26:06.157Z,-2.50
2018-03-03T12:27:05.835Z,-2.50
2018-03-03T12:28:05.462Z,-2.44
2018-03-03T12:29:06.109Z,-2.44
2018-03-03T12:30:05.841Z,-2.50
2018-03-03T12:31:06.123Z,-2.50
2018-03-03T12:32:05.868Z,-2.50
2018-03-03T12:33:06.530Z,-2.44
2018-03-03T12:34:06.582Z,-2.44
2018-03-03T12:35:05.808Z,-2.50
2018-03-03T12:36:06.900Z,-2.50
2018-03-03T12:37:06.180Z,-2.56
2018-03-03T12:38:05.816Z,-2.62
2018-03-03T12:39:06.570Z,-2.56
2018-03-03T12:40:05.912Z,-2.56
2018-03-03T12:41:05.893Z,-2.56
2018-03-03T12:42:05.521Z,-2.56
2018-03-03T12:43:06.301Z,-2.56
2018-03-03T12:44:05.926Z,-2.50
2018-03-03T12:45:10.329Z,-2.56
2018-03-03T12:46:05.909Z,-2.56
2018-03-03T12:47:10.453Z,-2.56
2018-03-03T12:48:05.811Z,-2.56
2018-03-03T12:49:06.149Z,-2.62
2018-03-03T12:50:06.642Z,-2.56
2018-03-03T12:51:06.651Z,-2.56
2018-03-03T12:52:05.831Z,-2.56